Time;durP1;ratioP1;P1;durP2;ratioP2;P2;SDS_P1;SDS_P2;PMS_P1;PMS_P2;Temp;Humidity;BMP_temperature;BMP_pressure;BME280_temperature;BME280_humidity;BME280_pressure;Samples;Min_cycle;Max_cycle;Signal;HPM_P1;HPM_P2
2023/10/12 00:02:13;;;;;;;4.63;2.28;;;20.20;99.90;;;;;;5145946;27;20055;-66
2023/10/12 00:04:43;;;;;;;6.55;2.60;;;20.20;99.90;;;;;;5131599;27;20193;-66
2023/10/12 00:07:15;;;;;;;6.10;2.67;;;20.20;99.90;;;;;;5125303;27;20043;-66
2023/10/12 00:10:01;;;;;;;7.20;2.45;;;20.20;99.90;;;;;;5129013;27;20085;-66
2023/10/12 00:12:28;;;;;;;5.97;2.28;;;20.20;99.90;;;;;;5145446;27;20053;-66
2023/10/12 00:14:55;;;;;;;4.25;2.10;;;20.10;99.90;;;;;;5149545;27;20116;-66
2023/10/12 00:17:23;;;;;;;5.40;2.20;;;20.20;99.90;;;;;;5150894;27;20079;-66
2023/10/12 00:19:52;;;;;;;6.63;2.33;;;20.10;99.90;;;;;;5148548;27;20047;-66
2023/10/12 00:22:18;;;;;;;4.18;2.05;;;20.10;99.90;;;;;;5150145;27;20515;-66
2023/10/12 00:24:44;;;;;;;4.75;2.55;;;20.10;99.90;;;;;;5149582;27;20082;-66
2023/10/12 00:27:12;;;;;;;5.88;2.15;;;20.10;99.90;;;;;;5132568;27;20050;-67
2023/10/12 00:29:39;;;;;;;4.07;2.30;;;20.10;99.90;;;;;;5127989;27;20049;-66
2023/10/12 00:32:06;;;;;;;4.88;2.30;;;20.10;99.90;;;;;;5128764;27;20043;-66
2023/10/12 00:34:36;;;;;;;4.13;2.33;;;20.10;99.90;;;;;;5128447;27;20072;-67
2023/10/12 00:37:03;;;;;;;6.65;2.67;;;20.10;99.90;;;;;;5127951;27;20078;-66
2023/10/12 00:39:44;;;;;;;5.28;2.42;;;20.10;99.90;;;;;;5127309;27;20054;-67
2023/10/12 00:42:11;;;;;;;5.38;2.25;;;20.00;99.90;;;;;;5128547;27;20427;-67
2023/10/12 00:44:40;;;;;;;4.65;1.88;;;20.10;99.90;;;;;;5126855;27;20035;-67
2023/10/12 00:47:44;;;;;;;4.57;2.30;;;20.00;99.90;;;;;;5127087;27;20420;-66
2023/10/12 00:49:58;;;;;;;4.72;2.22;;;20.00;99.90;;;;;;5126174;27;20054;-66
2023/10/12 00:52:26;;;;;;;6.53;2.25;;;20.10;99.90;;;;;;5127684;27;20079;-66
2023/10/12 00:55:01;;;;;;;4.82;2.10;;;20.00;99.90;;;;;;5129110;27;20066;-67
2023/10/12 00:57:26;;;;;;;;;;;20.00;99.90;;;;;;5118598;27;20047;-67
2023/10/12 00:59:52;;;;;;;5.15;2.03;;;20.00;99.90;;;;;;5106263;28;19919;-67
2023/10/12 01:02:23;;;;;;;5.03;1.98;;;20.00;99.90;;;;;;5154606;22;20686;-66
2023/10/12 01:04:52;;;;;;;4.32;2.13;;;20.00;99.90;;;;;;5053003;28;20045;-66
2023/10/12 01:07:34;;;;;;;5.95;2.20;;;20.00;99.90;;;;;;5045458;28;20049;-67
2023/10/12 01:10:06;;;;;;;5.50;2.08;;;20.00;99.90;;;;;;5046121;28;20083;-67
2023/10/12 01:12:34;;;;;;;4.20;2.00;;;20.00;99.90;;;;;;5046187;28;20484;-67
2023/10/12 01:15:08;;;;;;;6.20;2.13;;;20.00;99.90;;;;;;5045884;28;20416;-67
2023/10/12 01:17:35;;;;;;;4.20;2.08;;;20.00;99.90;;;;;;5045733;28;20048;-67
2023/10/12 01:20:16;;;;;;;4.25;2.15;;;20.00;99.90;;;;;;5044723;28;20048;-67
2023/10/12 01:22:41;;;;;;;4.85;2.25;;;20.00;99.90;;;;;;5046387;28;20049;-68
2023/10/12 01:25:12;;;;;;;5.40;2.30;;;20.00;99.90;;;;;;5063707;28;20075;-67
2023/10/12 01:27:43;;;;;;;6.57;2.17;;;20.00;99.90;;;;;;5065034;28;20084;-67
2023/10/12 01:30:22;;;;;;;5.28;2.10;;;20.00;99.90;;;;;;5065287;28;20051;-67
2023/10/12 01:32:57;;;;;;;5.70;2.10;;;20.00;99.90;;;;;;5066815;28;20060;-66
2023/10/12 01:35:30;;;;;;;4.65;2.00;;;20.00;99.90;;;;;;5064892;28;20040;-67
2023/10/12 01:38:00;;;;;;;5.93;2.13;;;20.00;99.90;;;;;;5066559;28;20132;-66
2023/10/12 01:43:14;;;;;;;6.07;2.35;;;19.90;99.90;;;;;;5065943;28;20060;-67
2023/10/12 01:46:00;;;;;;;6.38;2.30;;;19.90;99.90;;;;;;5065463;28;20558;-67
2023/10/12 01:48:33;;;;;;;6.50;2.20;;;19.90;99.90;;;;;;5053817;28;20411;-67
2023/10/12 01:51:03;;;;;;;6.53;2.15;;;19.90;99.90;;;;;;5045770;28;20094;-67
2023/10/12 01:53:32;;;;;;;5.15;2.15;;;19.90;99.90;;;;;;5044866;28;20372;-66
2023/10/12 01:55:59;;;;;;;4.00;1.88;;;19.90;99.90;;;;;;5047856;28;20068;-67
2023/10/12 01:58:28;;;;;;;4.50;1.85;;;19.90;99.90;;;;;;5054980;28;20068;-66
2023/10/12 02:00:55;;;;;;;7.28;1.92;;;19.90;99.90;;;;;;5044643;28;20053;-67
2023/10/12 02:03:31;;;;;;;6.13;2.13;;;19.90;99.90;;;;;;5045682;28;20076;-67
2023/10/12 02:06:02;;;;;;;5.13;2.15;;;19.90;99.90;;;;;;5045040;28;20041;-66
2023/10/12 02:08:39;;;;;;;5.13;1.85;;;19.90;99.90;;;;;;5044662;28;20478;-66
2023/10/12 02:11:09;;;;;;;4.53;1.92;;;19.90;99.90;;;;;;5044561;28;20123;-67
2023/10/12 02:13:35;;;;;;;6.85;2.10;;;19.90;99.90;;;;;;5045856;28;20080;-67
2023/10/12 02:16:02;;;;;;;6.20;2.10;;;19.90;99.90;;;;;;5044071;28;20087;-67
2023/10/12 02:18:30;;;;;;;5.15;2.03;;;19.90;99.90;;;;;;5044226;28;20041;-67
2023/10/12 02:21:07;;;;;;;5.85;2.25;;;19.80;99.90;;;;;;5045005;28;20052;-67
2023/10/12 02:23:36;;;;;;;4.90;1.85;;;19.90;99.90;;;;;;5045067;28;20052;-66
2023/10/12 02:28:53;;;;;;;5.05;1.83;;;19.80;99.90;;;;;;5044539;28;20056;-66
2023/10/12 02:31:20;;;;;;;5.50;2.05;;;19.80;99.90;;;;;;5043552;28;20049;-67
2023/10/12 02:33:46;;;;;;;5.93;2.25;;;19.80;99.90;;;;;;5045260;28;20069;-67
2023/10/12 02:36:13;;;;;;;6.13;2.20;;;19.80;99.90;;;;;;5044078;28;20088;-67
2023/10/12 02:38:41;;;;;;;4.88;1.70;;;19.80;99.90;;;;;;5044704;28;20114;-67
2023/10/12 02:41:12;;;;;;;8.43;2.35;;;19.80;99.90;;;;;;5044401;28;20072;-67
2023/10/12 02:43:40;;;;;;;5.57;1.92;;;19.80;99.90;;;;;;5047394;28;20041;-66
2023/10/12 02:46:17;;;;;;;5.07;1.80;;;19.80;99.90;;;;;;5063351;28;20053;-67
2023/10/12 02:48:47;;;;;;;5.57;2.30;;;19.80;99.90;;;;;;5049752;28;20052;-68
2023/10/12 02:51:15;;;;;;;4.90;1.70;;;19.80;99.90;;;;;;5042767;28;20052;-68
2023/10/12 02:53:40;;;;;;;4.50;1.70;;;19.80;99.90;;;;;;5044754;28;20091;-68
2023/10/12 02:56:06;;;;;;;5.63;2.00;;;19.80;99.90;;;;;;5052405;28;20445;-67
2023/10/12 02:58:32;;;;;;;4.68;1.67;;;19.70;99.90;;;;;;5052782;28;20033;-68
2023/10/12 03:01:12;;;;;;;5.57;1.70;;;19.80;99.90;;;;;;5043971;28;20045;-67
2023/10/12 03:03:39;;;;;;;4.30;1.73;;;19.70;99.90;;;;;;5044792;28;20534;-67
2023/10/12 03:06:10;;;;;;;6.10;2.00;;;19.70;99.90;;;;;;5044083;28;20044;-67
2023/10/12 03:11:25;;;;;;;4.25;1.50;;;19.70;99.90;;;;;;5044846;28;20057;-68
2023/10/12 03:14:14;;;;;;;4.60;1.70;;;19.70;99.90;;;;;;5052420;28;20033;-67
2023/10/12 03:16:43;;;;;;;5.20;1.88;;;19.70;99.90;;;;;;5063226;28;20062;-67
2023/10/12 03:19:25;;;;;;;6.47;1.90;;;19.70;99.90;;;;;;5064578;28;20055;-67
2023/10/12 03:21:52;;;;;;;5.18;1.85;;;19.70;99.90;;;;;;5064420;28;20045;-64
2023/10/12 03:24:29;;;;;;;5.00;1.85;;;19.70;99.90;;;;;;5065378;28;20072;-67
2023/10/12 03:29:28;;;;;;;5.45;1.85;;;19.70;99.90;;;;;;5063082;28;20045;-67
2023/10/12 03:31:55;;;;;;;6.70;1.80;;;19.70;99.90;;;;;;5063208;28;20053;-67
2023/10/12 03:36:58;;;;;;;5.22;1.65;;;19.70;99.90;;;;;;5064005;28;20048;-67
2023/10/12 03:44:22;;;;;;;5.10;1.83;;;19.70;99.90;;;;;;5056931;28;20049;-67
2023/10/12 03:46:57;;;;;;;4.78;1.58;;;19.70;99.90;;;;;;5047254;28;20068;-68
2023/10/12 03:49:32;;;;;;;5.07;1.80;;;19.70;99.90;;;;;;5047034;28;20049;-68
2023/10/12 03:52:13;;;;;;;4.28;1.73;;;19.70;99.90;;;;;;5047723;28;20041;-68
2023/10/12 03:54:55;;;;;;;5.55;1.80;;;19.70;99.90;;;;;;5048137;28;20049;-67
2023/10/12 03:57:27;;;;;;;3.90;1.50;;;19.70;99.90;;;;;;5060121;28;20049;-67
2023/10/12 04:00:46;;;;;;;5.20;1.88;;;19.60;99.90;;;;;;5046960;28;20037;-68
2023/10/12 04:02:58;;;;;;;5.13;1.70;;;19.60;99.90;;;;;;5037335;28;20068;-68
2023/10/12 04:08:19;;;;;;;5.80;1.95;;;19.60;99.90;;;;;;5047407;28;20083;-68
2023/10/12 04:19:02;;;;;;;3.58;1.65;;;19.60;99.90;;;;;;5047873;28;20517;-67
2023/10/12 04:21:33;;;;;;;4.22;1.50;;;19.60;99.90;;;;;;5047361;28;20149;-67
2023/10/12 04:26:44;;;;;;;6.20;1.77;;;19.60;99.90;;;;;;5047200;28;20116;-67
2023/10/12 04:29:13;;;;;;;4.30;1.80;;;19.60;99.90;;;;;;5061164;28;20116;-68
2023/10/12 04:34:15;;;;;;;5.05;1.75;;;19.60;99.90;;;;;;5046792;28;20076;-67
2023/10/12 04:36:52;;;;;;;4.68;1.60;;;19.60;99.90;;;;;;5045357;28;20126;-67
2023/10/12 04:39:27;;;;;;;6.13;1.60;;;19.60;99.90;;;;;;5046133;28;20053;-68
2023/10/12 04:47:06;;;;;;;4.57;1.58;;;19.60;99.90;;;;;;5046918;28;20501;-68
2023/10/12 04:55:07;;;;;;;5.15;1.60;;;19.50;99.90;;;;;;5045829;28;19948;-67
2023/10/12 04:57:33;;;;;;;4.03;1.50;;;19.50;99.90;;;;;;5057388;28;20156;-67
2023/10/12 05:02:41;;;;;;;3.47;1.40;;;19.50;99.90;;;;;;5046304;28;20224;-67
2023/10/12 05:07:53;;;;;;;5.50;1.80;;;19.50;99.90;;;;;;5065183;28;20155;-67
2023/10/12 05:10:26;;;;;;;5.47;1.60;;;19.50;99.90;;;;;;5066844;28;20056;-67
2023/10/12 05:13:03;;;;;;;5.53;1.80;;;19.50;99.90;;;;;;5064725;28;20060;-66
2023/10/12 05:15:39;;;;;;;3.78;1.38;;;19.50;99.90;;;;;;5065571;28;20044;-67
2023/10/12 05:18:09;;;;;;;4.05;1.75;;;19.50;99.90;;;;;;5065385;28;20036;-68
2023/10/12 05:20:35;;;;;;;4.60;1.63;;;19.50;99.90;;;;;;5066847;28;20675;-68
2023/10/12 05:23:04;;;;;;;3.50;1.50;;;19.50;99.90;;;;;;5065426;28;20040;-68
2023/10/12 05:25:47;;;;;;;2.88;1.48;;;19.50;99.90;;;;;;5064522;28;20049;-68
2023/10/12 05:28:18;;;;;;;5.55;1.77;;;19.50;99.90;;;;;;5064888;28;20402;-67
2023/10/12 05:30:50;;;;;;;6.18;1.70;;;19.50;99.90;;;;;;5064653;28;20049;-67
2023/10/12 05:36:09;;;;;;;4.80;1.63;;;19.40;99.90;;;;;;5065230;28;20048;-68
2023/10/12 05:38:48;;;;;;;4.03;1.40;;;19.50;99.90;;;;;;5065293;28;20052;-68
2023/10/12 05:41:21;;;;;;;2.95;1.23;;;19.40;99.90;;;;;;5065813;28;20102;-68
2023/10/12 05:43:47;;;;;;;4.35;1.50;;;19.40;99.90;;;;;;5065426;28;20080;-68
2023/10/12 05:46:15;;;;;;;3.67;1.40;;;19.40;99.90;;;;;;5065463;28;20082;-67
2023/10/12 05:48:45;;;;;;;3.80;1.33;;;19.40;99.90;;;;;;5065944;28;20119;-68
2023/10/12 05:51:12;;;;;;;4.50;1.70;;;19.40;99.90;;;;;;5065317;28;20098;-68
2023/10/12 05:53:38;;;;;;;5.10;1.55;;;19.40;99.90;;;;;;5065475;28;20036;-68
2023/10/12 05:56:06;;;;;;;3.45;1.20;;;19.40;99.90;;;;;;5058343;28;20049;-67
2023/10/12 05:58:38;;;;;;;3.70;1.58;;;19.40;99.90;;;;;;5051643;28;20522;-67
2023/10/12 06:01:10;;;;;;;4.93;1.50;;;19.40;99.90;;;;;;5044966;28;20048;-67
2023/10/12 06:03:39;;;;;;;4.90;1.50;;;19.40;99.90;;;;;;5044866;28;20045;-67
2023/10/12 06:06:09;;;;;;;4.32;1.40;;;19.40;99.90;;;;;;5043000;28;20060;-68
2023/10/12 06:08:35;;;;;;;7.72;1.95;;;19.40;99.90;;;;;;5045196;28;20053;-67
2023/10/12 06:11:01;;;;;;;3.45;1.23;;;19.40;99.90;;;;;;5045672;28;20053;-68
2023/10/12 06:13:31;;;;;;;4.57;1.50;;;19.40;99.90;;;;;;5044628;28;20408;-67
2023/10/12 06:15:56;;;;;;;3.35;1.30;;;19.40;99.90;;;;;;5045248;28;20077;-68
2023/10/12 06:18:25;;;;;;;4.35;1.50;;;19.40;99.90;;;;;;5045847;28;20044;-68
2023/10/12 06:21:06;;;;;;;3.15;1.20;;;19.40;99.90;;;;;;5045723;28;20131;-68
2023/10/12 06:23:32;;;;;;;4.85;1.50;;;19.30;99.90;;;;;;5045526;28;20048;-67
2023/10/12 06:25:58;;;;;;;3.03;1.40;;;19.30;99.90;;;;;;5044144;28;20041;-67
2023/10/12 06:28:27;;;;;;;3.55;1.52;;;19.40;99.90;;;;;;5042548;28;20045;-68
2023/10/12 06:30:53;;;;;;;4.45;1.70;;;19.30;99.90;;;;;;5043881;28;20128;-67
2023/10/12 06:33:22;;;;;;;3.95;1.33;;;19.30;99.90;;;;;;5046048;28;20083;-67
2023/10/12 06:35:58;;;;;;;4.80;1.50;;;19.30;99.90;;;;;;5044039;28;20037;-67
2023/10/12 06:40:08;;;;;;;4.85;1.40;;;19.40;99.90;;;;;;5045418;28;20147;-69
2023/10/12 06:46:48;;;;;;;3.42;1.40;;;19.40;99.90;;;;;;5045271;28;20053;-68
2023/10/12 06:49:22;;;;;;;4.05;1.40;;;19.40;99.90;;;;;;5045006;28;20040;-68
2023/10/12 06:52:00;;;;;;;4.13;1.43;;;19.40;99.90;;;;;;5045400;28;20091;-68
2023/10/12 07:02:42;;;;;;;3.55;1.20;;;19.50;99.90;;;;;;5053986;28;20060;-67
2023/10/12 07:05:08;;;;;;;4.50;1.50;;;19.50;99.90;;;;;;5065177;28;20064;-65
2023/10/12 07:07:36;;;;;;;4.00;1.45;;;19.50;99.90;;;;;;5063433;28;20594;-66
2023/10/12 07:12:42;;;;;;;3.75;1.52;;;19.50;99.90;;;;;;5063836;28;20457;-66
2023/10/12 07:15:12;;;;;;;4.25;1.10;;;19.50;99.90;;;;;;5063873;28;20049;-66
2023/10/12 07:17:44;;;;;;;2.90;1.38;;;19.50;99.90;;;;;;5062465;28;20424;-66
2023/10/12 07:20:25;;;;;;;3.33;1.23;;;19.60;99.90;;;;;;5059883;28;20123;-66
2023/10/12 07:22:51;;;;;;;6.22;1.40;;;19.50;99.90;;;;;;5056569;28;20048;-66
2023/10/12 07:25:22;;;;;;;5.90;1.83;;;19.60;99.90;;;;;;5060520;28;20899;-66
2023/10/12 07:27:51;;;;;;;4.75;1.60;;;19.60;99.90;;;;;;5058386;28;20124;-66
2023/10/12 07:30:30;;;;;;;4.80;1.60;;;19.60;99.90;;;;;;5060049;28;20040;-66
2023/10/12 07:32:59;;;;;;;4.60;1.48;;;19.60;99.90;;;;;;5062373;28;20082;-65
2023/10/12 07:35:42;;;;;;;4.57;1.60;;;19.60;99.90;;;;;;5050633;28;20051;-65
2023/10/12 07:38:13;;;;;;;5.75;1.42;;;19.60;99.90;;;;;;5068884;28;20052;-66
2023/10/12 07:40:49;;;;;;;5.47;1.70;;;19.70;99.90;;;;;;5068948;28;20439;-67
2023/10/12 07:43:18;;;;;;;6.47;1.95;;;19.60;99.90;;;;;;5067689;28;20041;-67
2023/10/12 07:45:50;;;;;;;11.30;2.67;;;19.50;99.90;;;;;;5068707;28;20059;-67
2023/10/12 07:48:39;;;;;;;7.10;2.10;;;19.40;99.90;;;;;;5066486;28;20063;-67
2023/10/12 07:51:15;;;;;;;7.63;2.05;;;19.40;99.90;;;;;;5067375;28;20056;-67
2023/10/12 07:53:52;;;;;;;5.22;1.75;;;19.60;99.90;;;;;;5069173;28;20154;-67
2023/10/12 07:56:22;;;;;;;5.32;1.58;;;19.70;99.90;;;;;;5061977;28;20048;-68
2023/10/12 07:58:57;;;;;;;8.50;1.70;;;19.80;99.90;;;;;;5054136;28;20055;-66
2023/10/12 08:03:52;;;;;;;6.22;1.70;;;20.00;99.90;;;;;;5048620;28;19921;-64
2023/10/12 08:06:42;;;;;;;7.03;1.92;;;20.00;99.90;;;;;;5047964;28;20114;-66
2023/10/12 08:12:24;;;;;;;4.80;1.65;;;20.10;99.90;;;;;;5013234;28;20044;-66
2023/10/12 08:14:53;;;;;;;5.57;1.70;;;20.20;99.90;;;;;;5046926;28;20092;-66
2023/10/12 08:17:29;;;;;;;4.70;1.63;;;20.30;99.90;;;;;;5047258;28;20045;-66
2023/10/12 08:22:39;;;;;;;8.32;1.73;;;20.40;99.90;;;;;;5048588;28;20094;-66
2023/10/12 08:25:05;;;;;;;5.60;1.40;;;20.40;99.90;;;;;;5047733;28;20130;-66
2023/10/12 08:27:52;;;;;;;5.80;1.50;;;20.30;99.90;;;;;;5046270;28;20480;-66
2023/10/12 08:30:48;;;;;;;4.20;1.50;;;20.30;99.90;;;;;;5047828;28;20419;-67
2023/10/12 08:33:48;;;;;;;8.57;1.95;;;20.20;99.90;;;;;;5054312;28;20525;-66
2023/10/12 08:39:08;;;;;;;11.13;2.03;;;20.10;99.90;;;;;;5052844;28;20083;-64
2023/10/12 08:41:57;;;;;;;4.45;1.50;;;20.00;99.90;;;;;;5054519;28;20323;-66
2023/10/12 08:44:22;;;;;;;5.90;1.70;;;20.00;99.90;;;;;;5046045;28;20049;-67
2023/10/12 08:46:56;;;;;;;4.35;1.45;;;20.00;99.90;;;;;;5047202;28;20110;-66
2023/10/12 08:49:41;;;;;;;4.40;1.33;;;20.00;99.90;;;;;;5045898;28;20049;-66
2023/10/12 08:52:18;;;;;;;;;;;20.10;99.90;;;;;;5060177;28;20159;-66
2023/10/12 08:54:51;;;;;;;5.72;1.45;;;20.20;99.90;;;;;;5047195;28;19920;-66
2023/10/12 08:57:35;;;;;;;4.28;1.48;;;20.20;99.90;;;;;;5048895;28;20045;-67
2023/10/12 09:02:53;;;;;;;6.05;1.70;;;20.30;99.90;;;;;;5066958;28;20144;-66
2023/10/12 09:05:28;;;;;;;5.63;1.73;;;20.30;99.90;;;;;;5067526;28;20123;-66
2023/10/12 09:13:26;;;;;;;3.47;1.33;;;20.60;99.90;;;;;;5066189;28;20053;-66
2023/10/12 09:15:54;;;;;;;4.10;1.65;;;20.70;99.90;;;;;;5066585;28;20442;-67
2023/10/12 09:18:24;;;;;;;4.43;1.67;;;20.70;99.90;;;;;;5067423;28;20037;-66
2023/10/12 09:23:28;;;;;;;5.45;1.17;;;20.70;99.90;;;;;;5066675;28;20056;-66
2023/10/12 09:28:59;;;;;;;7.05;1.60;;;20.40;99.90;;;;;;5065939;28;20537;-67
2023/10/12 09:36:44;;;;;;;4.65;1.70;;;20.30;99.90;;;;;;5066536;28;20048;-66
2023/10/12 09:39:14;;;;;;;4.72;1.40;;;20.30;99.90;;;;;;5065839;28;20127;-66
2023/10/12 09:41:41;;;;;;;6.57;1.70;;;20.40;99.90;;;;;;5066008;28;20213;-66
2023/10/12 09:44:11;;;;;;;4.75;1.50;;;20.60;99.90;;;;;;5064827;28;20040;-66
2023/10/12 09:46:49;;;;;;;5.35;1.35;;;20.70;99.90;;;;;;5048204;28;20044;-67
2023/10/12 09:49:21;;;;;;;3.78;1.27;;;20.80;99.90;;;;;;5064655;28;20044;-66
2023/10/12 09:51:51;;;;;;;3.85;1.35;;;20.80;99.90;;;;;;5066375;28;20044;-66
2023/10/12 09:54:29;;;;;;;7.32;1.80;;;20.70;99.90;;;;;;5049108;28;20044;-66
2023/10/12 09:57:03;;;;;;;3.08;1.20;;;20.70;99.90;;;;;;5058993;28;20048;-66
2023/10/12 09:59:31;;;;;;;4.50;1.35;;;20.60;99.90;;;;;;5046171;28;20037;-66
2023/10/12 10:02:27;;;;;;;4.43;1.33;;;20.70;99.90;;;;;;5043999;28;20065;-65
2023/10/12 10:04:57;;;;;;;6.15;1.50;;;20.70;99.90;;;;;;5046284;28;20045;-66
2023/10/12 10:07:27;;;;;;;5.93;2.00;;;20.70;99.90;;;;;;5044835;28;20053;-67
2023/10/12 10:09:58;;;;;;;3.78;1.42;;;20.80;99.90;;;;;;5045490;28;20078;-66
2023/10/12 10:12:27;;;;;;;6.35;1.55;;;21.00;99.90;;;;;;5044398;28;20128;-66
2023/10/12 10:14:59;;;;;;;4.78;1.30;;;21.20;99.90;;;;;;5044662;28;20088;-67
2023/10/12 10:17:35;;;;;;;5.88;1.83;;;21.20;99.90;;;;;;5046360;28;20167;-66
2023/10/12 10:20:46;;;;;;;6.03;1.38;;;21.40;99.90;;;;;;5045578;28;20093;-66
2023/10/12 10:22:59;;;;;;;4.32;1.30;;;21.60;99.90;;;;;;5045450;28;20048;-66
2023/10/12 10:25:50;;;;;;;5.38;1.60;;;21.60;99.90;;;;;;5045857;28;20116;-66
2023/10/12 10:28:55;;;;;;;3.97;1.40;;;21.40;99.90;;;;;;5044013;28;20094;-66
2023/10/12 10:31:31;;;;;;;4.57;1.20;;;21.30;99.90;;;;;;5058165;28;20044;-65
2023/10/12 10:34:01;;;;;;;4.38;1.42;;;21.40;99.90;;;;;;5063321;28;20068;-66
2023/10/12 10:36:34;;;;;;;4.05;1.20;;;21.50;99.90;;;;;;5046511;28;20036;-65
2023/10/12 10:39:03;;;;;;;4.75;1.30;;;21.50;99.90;;;;;;5059815;28;20112;-66
2023/10/12 10:41:46;;;;;;;5.90;1.50;;;21.40;99.90;;;;;;5057937;28;20044;-65
2023/10/12 10:44:15;;;;;;;5.55;1.40;;;21.60;99.90;;;;;;5049805;28;20041;-66
2023/10/12 10:46:47;;;;;;;4.75;1.20;;;21.90;99.90;;;;;;5044106;28;20053;-66
2023/10/12 10:49:16;;;;;;;6.32;1.50;;;22.00;99.90;;;;;;5045057;28;20049;-66
2023/10/12 10:52:01;;;;;;;4.78;1.30;;;22.10;99.90;;;;;;5048948;28;20419;-67
2023/10/12 10:54:27;;;;;;;6.18;1.48;;;22.10;99.90;;;;;;5054058;28;20045;-66
2023/10/12 10:56:54;;;;;;;6.07;1.40;;;22.00;99.90;;;;;;5059059;28;20407;-65
2023/10/12 10:59:19;;;;;;;7.03;1.40;;;22.00;99.90;;;;;;5046031;28;20139;-64
2023/10/12 11:01:50;;;;;;;6.22;1.45;;;21.90;99.90;;;;;;5044743;28;20135;-64
2023/10/12 11:07:06;;;;;;;6.10;1.40;;;21.70;99.90;;;;;;5044498;28;20131;-64
2023/10/12 11:09:54;;;;;;;7.95;1.73;;;21.60;99.90;;;;;;5050517;28;20053;-63
2023/10/12 11:12:23;;;;;;;5.07;1.52;;;21.50;99.90;;;;;;5059312;28;20051;-64
2023/10/12 11:15:19;;;;;;;5.43;1.55;;;21.40;99.90;;;;;;5035214;28;20144;-64
2023/10/12 11:17:56;;;;;;;5.85;1.67;;;21.30;99.90;;;;;;5055371;28;20036;-64
2023/10/12 11:20:27;;;;;;;3.35;1.10;;;21.30;99.90;;;;;;5056071;28;20044;-64
2023/10/12 11:22:59;;;;;;;5.07;1.80;;;21.20;99.90;;;;;;5055297;28;20388;-63
2023/10/12 11:25:27;;;;;;;7.10;1.58;;;21.20;99.90;;;;;;5053956;28;20090;-64
2023/10/12 11:27:53;;;;;;;6.57;1.45;;;21.10;99.90;;;;;;5053826;28;20119;-65
2023/10/12 11:30:35;;;;;;;4.53;1.30;;;21.10;99.90;;;;;;5059447;28;20601;-64
2023/10/12 11:33:07;;;;;;;4.25;1.38;;;21.10;99.90;;;;;;5056239;28;20049;-63
2023/10/12 11:35:40;;;;;;;5.72;1.83;;;21.10;99.90;;;;;;5051548;28;20048;-65
2023/10/12 11:38:15;;;;;;;5.60;1.40;;;21.00;99.90;;;;;;5062666;28;20041;-64
2023/10/12 11:40:40;;;;;;;5.30;1.45;;;21.00;99.90;;;;;;5049307;28;20049;-64
2023/10/12 11:43:06;;;;;;;6.75;1.80;;;20.90;99.90;;;;;;5043736;28;20033;-63
2023/10/12 11:45:34;;;;;;;5.65;1.30;;;20.80;99.90;;;;;;5043183;28;20045;-64
2023/10/12 11:48:21;;;;;;;6.75;1.80;;;20.80;99.90;;;;;;5043147;28;20084;-64
2023/10/12 11:50:48;;;;;;;4.78;1.40;;;20.70;99.90;;;;;;5044495;28;20057;-64
2023/10/12 11:53:17;;;;;;;5.57;1.33;;;20.70;99.90;;;;;;5044575;28;20426;-63
2023/10/12 11:55:44;;;;;;;4.45;1.30;;;20.60;99.90;;;;;;5047007;28;20068;-63
2023/10/12 11:58:16;;;;;;;5.85;1.27;;;20.60;99.90;;;;;;5054425;28;20052;-64
2023/10/12 12:00:44;;;;;;;4.22;1.20;;;20.60;99.90;;;;;;5063477;28;20522;-64
2023/10/12 12:03:11;;;;;;;6.30;1.73;;;20.60;99.90;;;;;;5063644;28;20049;-63
2023/10/12 12:05:37;;;;;;;6.28;1.50;;;20.60;99.90;;;;;;5067897;28;20080;-64
2023/10/12 12:08:07;;;;;;;4.93;1.40;;;20.60;99.90;;;;;;5067008;28;20086;-63
2023/10/12 12:13:15;;;;;;;6.00;1.30;;;20.60;99.90;;;;;;5066946;28;20052;-64
2023/10/12 12:15:44;;;;;;;5.95;1.25;;;20.60;99.90;;;;;;5068097;28;20055;-63
2023/10/12 12:18:17;;;;;;;5.15;1.50;;;20.50;99.90;;;;;;5068214;28;20037;-64
2023/10/12 12:20:44;;;;;;;6.30;1.42;;;20.50;99.90;;;;;;5067619;28;20599;-63
2023/10/12 12:23:11;;;;;;;4.68;1.42;;;20.40;99.90;;;;;;5066647;28;20049;-63
2023/10/12 12:25:39;;;;;;;3.63;1.00;;;20.40;99.90;;;;;;5068517;28;20036;-64
2023/10/12 12:28:07;;;;;;;7.13;1.48;;;20.40;99.90;;;;;;5066487;28;20123;-63
2023/10/12 12:30:35;;;;;;;5.45;1.23;;;20.40;99.90;;;;;;5066553;28;20050;-64
2023/10/12 12:33:08;;;;;;;3.35;1.42;;;20.40;99.90;;;;;;5067432;28;20044;-63
2023/10/12 12:35:38;;;;;;;5.70;1.75;;;20.40;99.90;;;;;;5067802;28;20046;-64
2023/10/12 12:38:17;;;;;;;4.43;1.23;;;20.40;99.90;;;;;;5067688;28;20036;-63
2023/10/12 12:40:45;;;;;;;7.25;1.50;;;20.30;99.90;;;;;;5067261;28;20064;-63
2023/10/12 12:43:10;;;;;;;6.75;1.60;;;20.40;99.90;;;;;;5065502;28;20063;-64
2023/10/12 12:45:36;;;;;;;5.20;1.60;;;20.30;99.90;;;;;;5067357;28;20052;-63
2023/10/12 12:48:05;;;;;;;5.20;1.10;;;20.30;99.90;;;;;;5067105;28;20652;-63
2023/10/12 12:50:31;;;;;;;4.88;1.00;;;20.30;99.90;;;;;;5066631;28;20048;-63
2023/10/12 12:52:57;;;;;;;5.40;1.50;;;20.30;99.90;;;;;;5067086;28;20450;-64
2023/10/12 12:55:27;;;;;;;5.13;1.42;;;20.30;99.90;;;;;;5065370;28;20474;-64
2023/10/12 12:57:56;;;;;;;4.50;1.17;;;20.30;99.90;;;;;;5053745;28;20057;-64
2023/10/12 13:00:22;;;;;;;4.18;1.10;;;20.30;99.90;;;;;;5047298;28;20040;-65
2023/10/12 13:02:48;;;;;;;5.15;1.40;;;20.30;99.90;;;;;;5051219;28;20063;-65
2023/10/12 13:05:14;;;;;;;4.78;1.23;;;20.20;99.90;;;;;;5052670;28;20037;-63
2023/10/12 13:07:46;;;;;;;5.82;1.50;;;20.20;99.90;;;;;;5053248;28;20319;-64
2023/10/12 13:10:12;;;;;;;7.55;1.52;;;20.20;99.90;;;;;;5053558;28;20045;-64
2023/10/12 13:12:40;;;;;;;5.18;1.30;;;20.20;99.90;;;;;;5052279;28;20037;-64
2023/10/12 13:15:09;;;;;;;4.47;1.00;;;20.20;99.90;;;;;;5053709;28;20036;-64
2023/10/12 13:17:36;;;;;;;6.65;1.30;;;20.20;99.90;;;;;;5053547;28;20048;-63
2023/10/12 13:20:02;;;;;;;3.88;1.35;;;20.20;99.90;;;;;;5051634;28;20480;-65
2023/10/12 13:22:28;;;;;;;3.80;1.27;;;20.20;99.90;;;;;;5053317;28;21318;-64
2023/10/12 13:24:58;;;;;;;4.88;1.30;;;20.20;99.90;;;;;;5050988;28;20045;-64
2023/10/12 13:27:27;;;;;;;5.43;1.27;;;20.20;99.90;;;;;;5050932;28;20091;-64
2023/10/12 13:30:09;;;;;;;4.50;1.13;;;20.20;99.90;;;;;;5052489;28;20049;-64
2023/10/12 13:32:36;;;;;;;5.88;1.42;;;20.20;99.90;;;;;;5052633;28;20533;-64
2023/10/12 13:35:17;;;;;;;6.70;1.33;;;20.20;99.90;;;;;;5051934;28;20048;-64
2023/10/12 13:37:44;;;;;;;4.80;1.08;;;20.20;99.90;;;;;;5051478;28;20825;-63
2023/10/12 13:40:15;;;;;;;5.60;1.25;;;20.20;99.90;;;;;;5052997;28;20078;-64
2023/10/12 13:42:43;;;;;;;4.57;1.17;;;20.20;99.90;;;;;;5052160;28;20048;-64
2023/10/12 13:45:12;;;;;;;3.20;1.00;;;20.20;99.90;;;;;;5051182;28;20063;-63
2023/10/12 13:47:42;;;;;;;4.47;1.35;;;20.10;99.90;;;;;;5053499;28;20040;-63
2023/10/12 13:50:11;;;;;;;3.65;1.00;;;20.10;99.90;;;;;;5052530;28;20050;-63
2023/10/12 13:52:38;;;;;;;5.88;1.58;;;20.10;99.90;;;;;;5052449;28;20048;-65
2023/10/12 13:55:13;;;;;;;3.55;1.15;;;20.10;99.90;;;;;;5052473;28;20040;-64
2023/10/12 13:58:00;;;;;;;4.45;1.30;;;20.10;99.90;;;;;;5051508;28;20049;-63
2023/10/12 14:00:25;;;;;;;3.55;1.00;;;20.10;99.90;;;;;;5052385;28;20037;-65
2023/10/12 14:02:58;;;;;;;4.53;1.10;;;20.10;99.90;;;;;;5052463;28;20052;-63
2023/10/12 14:05:24;;;;;;;4.38;1.20;;;20.10;99.90;;;;;;5051978;28;20041;-63
2023/10/12 14:07:58;;;;;;;4.35;0.95;;;20.10;99.90;;;;;;5052929;28;20123;-63
2023/10/12 14:10:24;;;;;;;4.35;1.50;;;20.10;99.90;;;;;;5051972;28;20052;-64
2023/10/12 14:12:53;;;;;;;4.22;1.10;;;20.10;99.90;;;;;;5050425;28;20099;-63
2023/10/12 14:15:20;;;;;;;3.40;0.90;;;20.00;99.90;;;;;;5053627;28;20044;-64
2023/10/12 14:17:46;;;;;;;5.00;1.27;;;20.10;99.90;;;;;;5051454;28;20044;-64
2023/10/12 14:20:13;;;;;;;6.30;1.63;;;20.10;99.90;;;;;;5052043;28;20247;-63
2023/10/12 14:22:44;;;;;;;3.22;1.10;;;20.10;99.90;;;;;;5051407;28;20083;-63
2023/10/12 14:25:14;;;;;;;4.03;1.27;;;20.10;99.90;;;;;;5051461;28;20048;-63
2023/10/12 14:27:42;;;;;;;3.95;1.00;;;20.10;99.90;;;;;;5049492;28;20051;-64
2023/10/12 14:30:14;;;;;;;4.15;1.20;;;20.10;99.90;;;;;;5051759;28;20044;-63
2023/10/12 14:32:40;;;;;;;5.78;1.30;;;20.00;99.90;;;;;;5050976;28;20364;-63
2023/10/12 14:35:07;;;;;;;7.30;1.20;;;20.00;99.90;;;;;;5051162;28;20074;-64
2023/10/12 14:37:36;;;;;;;3.33;1.20;;;20.00;99.90;;;;;;5051465;28;20052;-63
2023/10/12 14:40:10;;;;;;;5.55;1.20;;;20.00;99.90;;;;;;5051363;28;20048;-64
2023/10/12 14:42:40;;;;;;;4.25;1.42;;;20.00;99.90;;;;;;5050672;28;20554;-64
2023/10/12 14:45:09;;;;;;;5.00;1.38;;;20.00;99.90;;;;;;5052252;28;20055;-64
2023/10/12 14:47:36;;;;;;;5.13;1.35;;;20.00;99.90;;;;;;5052432;28;20578;-64
2023/10/12 14:50:05;;;;;;;4.65;1.63;;;20.00;99.90;;;;;;5051560;28;20040;-64
2023/10/12 14:52:38;;;;;;;4.85;1.48;;;20.00;99.90;;;;;;5051936;28;20051;-65
2023/10/12 14:55:10;;;;;;;3.85;1.30;;;20.00;99.90;;;;;;5050418;28;20049;-64
2023/10/12 14:57:40;;;;;;;4.35;0.90;;;19.90;99.90;;;;;;5050736;28;20045;-64